sensor_id;sensor_type;location;lat;lon;timestamp;P1;P2;P0
72854;PMS7003;60991;51.278;22.550;2022-07-04T00:00:08;14.00;11.75;8.25
72854;PMS7003;60991;51.278;22.550;2022-07-04T00:01:39;12.50;11.00;8.00
72854;PMS7003;60991;51.278;22.550;2022-07-04T00:03:09;11.75;11.75;8.75
72854;PMS7003;60991;51.278;22.550;2022-07-04T00:04:40;13.25;13.25;9.00
72854;PMS7003;60991;51.278;22.550;2022-07-04T00:06:10;14.00;12.25;9.50
72854;PMS7003;60991;51.278;22.550;2022-07-04T00:07:41;13.00;11.75;9.00
72854;PMS7003;60991;51.278;22.550;2022-07-04T00:09:13;12.75;12.75;8.75
72854;PMS7003;60991;51.278;22.550;2022-07-04T00:10:43;12.75;12.75;10.00
72854;PMS7003;60991;51.278;22.550;2022-07-04T00:12:13;14.50;12.00;8.00
72854;PMS7003;60991;51.278;22.550;2022-07-04T00:13:43;8.75;8.25;5.75
72854;PMS7003;60991;51.278;22.550;2022-07-04T00:15:14;15.00;12.75;9.00
72854;PMS7003;60991;51.278;22.550;2022-07-04T00:16:45;10.25;8.25;4.25
72854;PMS7003;60991;51.278;22.550;2022-07-04T00:18:15;14.75;12.75;10.00
72854;PMS7003;60991;51.278;22.550;2022-07-04T00:19:45;12.25;12.25;10.25
72854;PMS7003;60991;51.278;22.550;2022-07-04T00:21:16;14.25;13.75;8.50
72854;PMS7003;60991;51.278;22.550;2022-07-04T00:22:46;12.00;11.00;7.75
72854;PMS7003;60991;51.278;22.550;2022-07-04T00:24:16;12.50;12.50;9.00
72854;PMS7003;60991;51.278;22.550;2022-07-04T00:25:47;13.50;11.50;7.50
72854;PMS7003;60991;51.278;22.550;2022-07-04T00:27:17;13.50;11.75;9.75
72854;PMS7003;60991;51.278;22.550;2022-07-04T00:28:47;10.00;9.00;7.00
72854;PMS7003;60991;51.278;22.550;2022-07-04T00:30:18;13.00;11.25;9.00
72854;PMS7003;60991;51.278;22.550;2022-07-04T00:31:48;9.50;9.50;6.00
72854;PMS7003;60991;51.278;22.550;2022-07-04T00:33:18;13.00;12.25;9.00
72854;PMS7003;60991;51.278;22.550;2022-07-04T00:34:48;11.50;11.50;8.25
72854;PMS7003;60991;51.278;22.550;2022-07-04T00:36:19;12.75;12.25;8.00
72854;PMS7003;60991;51.278;22.550;2022-07-04T00:37:49;10.50;10.50;7.00
72854;PMS7003;60991;51.278;22.550;2022-07-04T00:39:19;13.25;10.75;8.00
72854;PMS7003;60991;51.278;22.550;2022-07-04T00:40:50;13.25;11.75;8.00
72854;PMS7003;60991;51.278;22.550;2022-07-04T00:42:20;11.25;10.75;7.75
72854;PMS7003;60991;51.278;22.550;2022-07-04T00:45:50;12.00;12.00;8.00
72854;PMS7003;60991;51.278;22.550;2022-07-04T00:47:21;10.75;10.25;7.75
72854;PMS7003;60991;51.278;22.550;2022-07-04T00:48:51;11.75;11.25;9.00
72854;PMS7003;60991;51.278;22.550;2022-07-04T00:50:21;12.00;11.50;8.00
72854;PMS7003;60991;51.278;22.550;2022-07-04T00:51:53;15.75;13.00;8.25
72854;PMS7003;60991;51.278;22.550;2022-07-04T00:53:23;14.00;14.00;7.25
72854;PMS7003;60991;51.278;22.550;2022-07-04T00:54:54;11.50;11.50;7.50
72854;PMS7003;60991;51.278;22.550;2022-07-04T00:56:24;14.25;11.75;9.00
72854;PMS7003;60991;51.278;22.550;2022-07-04T00:57:55;14.75;13.25;8.25
72854;PMS7003;60991;51.278;22.550;2022-07-04T00:59:26;12.25;12.25;8.25
72854;PMS7003;60991;51.278;22.550;2022-07-04T01:00:57;12.25;12.25;8.25
72854;PMS7003;60991;51.278;22.550;2022-07-04T01:02:27;13.50;9.75;6.50
72854;PMS7003;60991;51.278;22.550;2022-07-04T01:03:58;11.00;11.00;8.00
72854;PMS7003;60991;51.278;22.550;2022-07-04T01:05:28;13.75;12.25;7.75
72854;PMS7003;60991;51.278;22.550;2022-07-04T01:06:58;10.25;10.25;6.50
72854;PMS7003;60991;51.278;22.550;2022-07-04T01:08:29;11.75;11.00;7.75
72854;PMS7003;60991;51.278;22.550;2022-07-04T01:09:59;9.75;9.75;7.00
72854;PMS7003;60991;51.278;22.550;2022-07-04T01:11:30;11.25;11.25;9.00
72854;PMS7003;60991;51.278;22.550;2022-07-04T01:13:00;12.75;11.50;8.25
72854;PMS7003;60991;51.278;22.550;2022-07-04T01:14:30;12.75;12.25;6.25
72854;PMS7003;60991;51.278;22.550;2022-07-04T01:16:01;12.75;12.75;9.00
72854;PMS7003;60991;51.278;22.550;2022-07-04T01:17:33;13.00;12.00;8.00
72854;PMS7003;60991;51.278;22.550;2022-07-04T01:19:04;14.75;12.50;9.00
72854;PMS7003;60991;51.278;22.550;2022-07-04T01:20:35;13.25;11.00;7.50
72854;PMS7003;60991;51.278;22.550;2022-07-04T01:22:06;12.75;10.75;6.75
72854;PMS7003;60991;51.278;22.550;2022-07-04T01:23:40;11.75;11.00;9.00
72854;PMS7003;60991;51.278;22.550;2022-07-04T01:25:11;12.25;12.25;9.00
72854;PMS7003;60991;51.278;22.550;2022-07-04T01:26:41;13.75;11.25;7.50
72854;PMS7003;60991;51.278;22.550;2022-07-04T01:28:12;13.00;11.25;8.00
72854;PMS7003;60991;51.278;22.550;2022-07-04T01:29:43;13.50;12.25;8.75
72854;PMS7003;60991;51.278;22.550;2022-07-04T01:31:13;17.75;12.75;9.25
72854;PMS7003;60991;51.278;22.550;2022-07-04T01:32:44;13.75;13.00;9.25
72854;PMS7003;60991;51.278;22.550;2022-07-04T01:34:14;13.75;13.75;8.25
72854;PMS7003;60991;51.278;22.550;2022-07-04T01:35:45;13.75;13.25;9.00
72854;PMS7003;60991;51.278;22.550;2022-07-04T01:37:16;14.00;13.00;9.50
72854;PMS7003;60991;51.278;22.550;2022-07-04T01:38:46;14.00;12.75;8.50
72854;PMS7003;60991;51.278;22.550;2022-07-04T01:40:17;12.25;11.75;8.75
72854;PMS7003;60991;51.278;22.550;2022-07-04T01:41:47;11.25;10.50;7.75
72854;PMS7003;60991;51.278;22.550;2022-07-04T01:43:17;13.00;13.00;10.25
72854;PMS7003;60991;51.278;22.550;2022-07-04T01:44:48;15.00;13.00;10.00
72854;PMS7003;60991;51.278;22.550;2022-07-04T01:46:18;11.00;11.00;9.00
72854;PMS7003;60991;51.278;22.550;2022-07-04T01:47:48;11.25;11.25;7.25
72854;PMS7003;60991;51.278;22.550;2022-07-04T01:49:19;12.25;10.50;7.25
72854;PMS7003;60991;51.278;22.550;2022-07-04T01:50:49;16.75;14.00;9.25
72854;PMS7003;60991;51.278;22.550;2022-07-04T01:52:19;13.00;13.00;9.50
72854;PMS7003;60991;51.278;22.550;2022-07-04T01:53:50;16.25;13.25;9.50
72854;PMS7003;60991;51.278;22.550;2022-07-04T01:55:20;14.00;12.75;8.75
72854;PMS7003;60991;51.278;22.550;2022-07-04T01:56:50;12.50;11.50;8.25
72854;PMS7003;60991;51.278;22.550;2022-07-04T01:58:21;10.00;8.50;7.75
72854;PMS7003;60991;51.278;22.550;2022-07-04T01:59:51;9.50;9.50;7.25
72854;PMS7003;60991;51.278;22.550;2022-07-04T02:01:21;12.50;11.00;9.00
72854;PMS7003;60991;51.278;22.550;2022-07-04T02:02:51;15.25;13.50;10.00
72854;PMS7003;60991;51.278;22.550;2022-07-04T02:04:22;14.50;14.50;8.75
72854;PMS7003;60991;51.278;22.550;2022-07-04T02:05:52;17.00;16.50;10.00
72854;PMS7003;60991;51.278;22.550;2022-07-04T02:07:22;14.25;13.25;8.50
72854;PMS7003;60991;51.278;22.550;2022-07-04T02:08:53;12.00;11.25;6.25
72854;PMS7003;60991;51.278;22.550;2022-07-04T02:10:23;13.50;13.25;8.50
72854;PMS7003;60991;51.278;22.550;2022-07-04T02:11:53;14.50;14.50;9.50
72854;PMS7003;60991;51.278;22.550;2022-07-04T02:13:24;15.00;15.00;9.25
72854;PMS7003;60991;51.278;22.550;2022-07-04T02:14:54;11.75;11.75;7.25
72854;PMS7003;60991;51.278;22.550;2022-07-04T02:16:24;15.50;12.00;8.25
72854;PMS7003;60991;51.278;22.550;2022-07-04T02:17:55;14.25;13.25;8.25
72854;PMS7003;60991;51.278;22.550;2022-07-04T02:19:26;12.25;12.25;8.50
72854;PMS7003;60991;51.278;22.550;2022-07-04T02:20:56;15.50;15.50;10.50
72854;PMS7003;60991;51.278;22.550;2022-07-04T02:22:27;15.25;11.75;9.75
72854;PMS7003;60991;51.278;22.550;2022-07-04T02:23:57;13.00;13.00;9.25
72854;PMS7003;60991;51.278;22.550;2022-07-04T02:25:27;15.50;15.00;9.25
72854;PMS7003;60991;51.278;22.550;2022-07-04T02:26:58;14.00;14.00;8.00
72854;PMS7003;60991;51.278;22.550;2022-07-04T02:28:29;11.25;11.25;7.75
72854;PMS7003;60991;51.278;22.550;2022-07-04T02:29:59;9.00;9.00;6.00
72854;PMS7003;60991;51.278;22.550;2022-07-04T02:31:29;7.50;7.50;5.25
72854;PMS7003;60991;51.278;22.550;2022-07-04T02:33:00;12.00;10.25;7.25
72854;PMS7003;60991;51.278;22.550;2022-07-04T02:34:30;6.75;6.25;4.25
72854;PMS7003;60991;51.278;22.550;2022-07-04T02:36:00;12.25;10.25;7.75
72854;PMS7003;60991;51.278;22.550;2022-07-04T02:37:31;12.25;11.25;8.00
72854;PMS7003;60991;51.278;22.550;2022-07-04T02:39:01;14.25;11.75;7.75
72854;PMS7003;60991;51.278;22.550;2022-07-04T02:40:32;15.00;13.75;8.00
72854;PMS7003;60991;51.278;22.550;2022-07-04T02:42:03;17.50;13.00;8.00
72854;PMS7003;60991;51.278;22.550;2022-07-04T02:43:33;10.75;10.75;7.25
72854;PMS7003;60991;51.278;22.550;2022-07-04T02:45:04;14.00;12.75;8.00
72854;PMS7003;60991;51.278;22.550;2022-07-04T02:46:35;11.50;11.50;7.50
72854;PMS7003;60991;51.278;22.550;2022-07-04T02:48:05;12.75;10.50;8.50
72854;PMS7003;60991;51.278;22.550;2022-07-04T02:49:36;14.25;13.00;9.00
72854;PMS7003;60991;51.278;22.550;2022-07-04T02:51:06;13.75;13.25;9.00
72854;PMS7003;60991;51.278;22.550;2022-07-04T02:52:36;11.50;11.50;8.00
72854;PMS7003;60991;51.278;22.550;2022-07-04T02:54:07;13.25;12.25;8.25
72854;PMS7003;60991;51.278;22.550;2022-07-04T02:55:38;10.50;9.75;7.25
72854;PMS7003;60991;51.278;22.550;2022-07-04T02:57:08;16.50;13.25;9.25
72854;PMS7003;60991;51.278;22.550;2022-07-04T02:58:39;12.50;12.25;8.50
72854;PMS7003;60991;51.278;22.550;2022-07-04T03:00:09;10.75;9.75;8.00
72854;PMS7003;60991;51.278;22.550;2022-07-04T03:01:40;8.00;8.00;5.00
72854;PMS7003;60991;51.278;22.550;2022-07-04T03:03:10;9.50;9.50;7.00
72854;PMS7003;60991;51.278;22.550;2022-07-04T03:04:40;7.50;7.50;5.50
72854;PMS7003;60991;51.278;22.550;2022-07-04T03:06:11;7.25;7.00;5.50
72854;PMS7003;60991;51.278;22.550;2022-07-04T03:07:41;7.75;6.00;4.25
72854;PMS7003;60991;51.278;22.550;2022-07-04T03:09:12;9.50;8.75;6.25
72854;PMS7003;60991;51.278;22.550;2022-07-04T03:10:42;13.00;9.75;7.00
72854;PMS7003;60991;51.278;22.550;2022-07-04T03:12:13;11.00;10.00;7.00
72854;PMS7003;60991;51.278;22.550;2022-07-04T03:13:43;9.00;9.00;7.00
72854;PMS7003;60991;51.278;22.550;2022-07-04T03:15:14;10.50;10.25;7.25
72854;PMS7003;60991;51.278;22.550;2022-07-04T03:16:44;11.25;9.50;5.75
72854;PMS7003;60991;51.278;22.550;2022-07-04T03:18:14;11.50;11.50;7.25
72854;PMS7003;60991;51.278;22.550;2022-07-04T03:19:45;6.50;6.50;5.00
72854;PMS7003;60991;51.278;22.550;2022-07-04T03:21:15;9.00;9.00;6.75
72854;PMS7003;60991;51.278;22.550;2022-07-04T03:22:45;9.50;8.25;6.75
72854;PMS7003;60991;51.278;22.550;2022-07-04T03:24:16;7.50;7.50;5.00
72854;PMS7003;60991;51.278;22.550;2022-07-04T03:25:46;10.00;10.00;6.00
72854;PMS7003;60991;51.278;22.550;2022-07-04T03:27:16;12.00;8.50;6.00
72854;PMS7003;60991;51.278;22.550;2022-07-04T03:28:46;7.50;6.25;5.00
72854;PMS7003;60991;51.278;22.550;2022-07-04T03:30:17;8.00;6.00;4.50
72854;PMS7003;60991;51.278;22.550;2022-07-04T03:31:47;10.75;8.75;5.50
72854;PMS7003;60991;51.278;22.550;2022-07-04T03:33:17;12.25;9.00;7.00
72854;PMS7003;60991;51.278;22.550;2022-07-04T03:34:48;10.25;8.25;6.25
72854;PMS7003;60991;51.278;22.550;2022-07-04T03:36:18;10.25;10.25;7.50
72854;PMS7003;60991;51.278;22.550;2022-07-04T03:37:49;11.75;11.25;8.00
72854;PMS7003;60991;51.278;22.550;2022-07-04T03:39:19;11.50;11.50;7.75
72854;PMS7003;60991;51.278;22.550;2022-07-04T03:40:49;12.75;11.25;8.25
72854;PMS7003;60991;51.278;22.550;2022-07-04T03:42:19;11.75;11.75;8.25
72854;PMS7003;60991;51.278;22.550;2022-07-04T03:43:50;10.75;7.75;4.00
72854;PMS7003;60991;51.278;22.550;2022-07-04T03:45:20;11.25;11.25;7.50
72854;PMS7003;60991;51.278;22.550;2022-07-04T03:46:50;9.75;8.75;6.25
72854;PMS7003;60991;51.278;22.550;2022-07-04T03:48:21;11.50;10.50;7.00
72854;PMS7003;60991;51.278;22.550;2022-07-04T03:49:51;9.25;9.00;6.00
72854;PMS7003;60991;51.278;22.550;2022-07-04T03:51:21;7.00;7.00;5.75
72854;PMS7003;60991;51.278;22.550;2022-07-04T03:52:52;8.75;8.25;6.50
72854;PMS7003;60991;51.278;22.550;2022-07-04T03:54:22;10.50;10.50;6.50
72854;PMS7003;60991;51.278;22.550;2022-07-04T03:55:52;11.75;11.75;8.50
72854;PMS7003;60991;51.278;22.550;2022-07-04T03:57:22;18.25;13.50;8.75
72854;PMS7003;60991;51.278;22.550;2022-07-04T03:58:53;10.75;10.00;7.75
72854;PMS7003;60991;51.278;22.550;2022-07-04T04:00:23;13.00;12.00;8.75
72854;PMS7003;60991;51.278;22.550;2022-07-04T04:01:53;12.00;12.00;8.50
72854;PMS7003;60991;51.278;22.550;2022-07-04T04:03:24;11.75;11.75;7.00
72854;PMS7003;60991;51.278;22.550;2022-07-04T04:04:54;10.00;10.00;7.25
72854;PMS7003;60991;51.278;22.550;2022-07-04T04:06:25;11.75;11.75;7.25
72854;PMS7003;60991;51.278;22.550;2022-07-04T04:07:55;13.25;11.25;7.25
72854;PMS7003;60991;51.278;22.550;2022-07-04T04:09:27;9.75;9.75;6.50
72854;PMS7003;60991;51.278;22.550;2022-07-04T04:10:57;10.75;10.75;8.00
72854;PMS7003;60991;51.278;22.550;2022-07-04T04:12:27;12.00;11.25;8.50
72854;PMS7003;60991;51.278;22.550;2022-07-04T04:13:58;13.00;12.00;9.50
72854;PMS7003;60991;51.278;22.550;2022-07-04T04:15:28;11.50;11.50;7.00
72854;PMS7003;60991;51.278;22.550;2022-07-04T04:16:58;12.00;12.00;8.00
72854;PMS7003;60991;51.278;22.550;2022-07-04T04:18:29;11.00;10.00;7.00
72854;PMS7003;60991;51.278;22.550;2022-07-04T04:19:59;12.00;12.00;8.25
72854;PMS7003;60991;51.278;22.550;2022-07-04T04:21:29;11.75;11.75;8.25
72854;PMS7003;60991;51.278;22.550;2022-07-04T04:23:00;11.25;10.75;8.50
72854;PMS7003;60991;51.278;22.550;2022-07-04T04:24:30;10.00;10.00;8.25
72854;PMS7003;60991;51.278;22.550;2022-07-04T04:26:00;10.00;10.00;8.75
72854;PMS7003;60991;51.278;22.550;2022-07-04T04:27:31;8.50;8.50;6.25
72854;PMS7003;60991;51.278;22.550;2022-07-04T04:29:01;9.25;9.00;7.00
72854;PMS7003;60991;51.278;22.550;2022-07-04T04:30:32;11.75;9.75;7.00
72854;PMS7003;60991;51.278;22.550;2022-07-04T04:32:02;9.75;9.00;7.00
72854;PMS7003;60991;51.278;22.550;2022-07-04T04:33:34;10.75;9.75;6.25
72854;PMS7003;60991;51.278;22.550;2022-07-04T04:35:04;7.50;7.50;5.75
72854;PMS7003;60991;51.278;22.550;2022-07-04T04:36:35;9.50;9.25;6.00
72854;PMS7003;60991;51.278;22.550;2022-07-04T04:38:05;9.00;9.00;5.50
72854;PMS7003;60991;51.278;22.550;2022-07-04T04:39:36;9.75;8.75;6.25
72854;PMS7003;60991;51.278;22.550;2022-07-04T04:41:06;11.75;11.75;8.25
72854;PMS7003;60991;51.278;22.550;2022-07-04T04:42:36;12.75;11.75;8.25
72854;PMS7003;60991;51.278;22.550;2022-07-04T04:44:07;13.00;13.00;9.25
72854;PMS7003;60991;51.278;22.550;2022-07-04T04:45:37;11.25;11.25;7.50
72854;PMS7003;60991;51.278;22.550;2022-07-04T04:47:07;13.25;13.25;8.50
72854;PMS7003;60991;51.278;22.550;2022-07-04T04:48:38;14.25;12.50;7.75
72854;PMS7003;60991;51.278;22.550;2022-07-04T04:50:08;14.00;13.75;8.75
72854;PMS7003;60991;51.278;22.550;2022-07-04T04:51:40;11.75;11.75;7.25
72854;PMS7003;60991;51.278;22.550;2022-07-04T04:53:10;15.25;13.00;9.50
72854;PMS7003;60991;51.278;22.550;2022-07-04T04:54:40;13.00;13.00;9.50
72854;PMS7003;60991;51.278;22.550;2022-07-04T04:56:10;13.50;12.50;9.25
72854;PMS7003;60991;51.278;22.550;2022-07-04T04:57:41;17.00;15.00;10.25
72854;PMS7003;60991;51.278;22.550;2022-07-04T04:59:11;13.50;12.50;7.00
72854;PMS7003;60991;51.278;22.550;2022-07-04T05:00:41;14.25;13.50;10.50
72854;PMS7003;60991;51.278;22.550;2022-07-04T05:02:12;14.25;14.25;9.00
72854;PMS7003;60991;51.278;22.550;2022-07-04T05:03:42;16.50;16.50;11.25
72854;PMS7003;60991;51.278;22.550;2022-07-04T05:05:12;14.25;13.00;9.00
72854;PMS7003;60991;51.278;22.550;2022-07-04T05:06:43;14.50;14.00;11.00
72854;PMS7003;60991;51.278;22.550;2022-07-04T05:08:13;12.50;11.75;8.00
72854;PMS7003;60991;51.278;22.550;2022-07-04T05:09:43;13.00;13.00;11.00
72854;PMS7003;60991;51.278;22.550;2022-07-04T05:11:14;14.50;13.75;9.25
72854;PMS7003;60991;51.278;22.550;2022-07-04T05:12:44;13.00;12.75;10.00
72854;PMS7003;60991;51.278;22.550;2022-07-04T05:14:14;15.50;15.25;11.00
72854;PMS7003;60991;51.278;22.550;2022-07-04T05:15:45;18.50;17.50;12.75
72854;PMS7003;60991;51.278;22.550;2022-07-04T05:17:16;20.00;17.50;12.00
72854;PMS7003;60991;51.278;22.550;2022-07-04T05:18:46;19.00;17.50;9.50
72854;PMS7003;60991;51.278;22.550;2022-07-04T05:20:16;16.50;15.25;9.00
72854;PMS7003;60991;51.278;22.550;2022-07-04T05:21:47;15.75;15.75;11.00
72854;PMS7003;60991;51.278;22.550;2022-07-04T05:23:17;16.25;15.25;10.50
72854;PMS7003;60991;51.278;22.550;2022-07-04T05:24:47;20.50;18.25;12.50
72854;PMS7003;60991;51.278;22.550;2022-07-04T05:26:18;13.50;13.00;9.50
72854;PMS7003;60991;51.278;22.550;2022-07-04T05:27:48;16.50;14.75;11.00
72854;PMS7003;60991;51.278;22.550;2022-07-04T05:29:19;18.00;15.00;9.25
72854;PMS7003;60991;51.278;22.550;2022-07-04T05:30:49;13.00;12.25;9.25
72854;PMS7003;60991;51.278;22.550;2022-07-04T05:32:19;13.50;13.50;8.75
72854;PMS7003;60991;51.278;22.550;2022-07-04T05:33:51;13.00;12.50;9.00
72854;PMS7003;60991;51.278;22.550;2022-07-04T05:35:22;15.50;14.25;10.50
72854;PMS7003;60991;51.278;22.550;2022-07-04T05:36:52;12.00;11.00;7.25
72854;PMS7003;60991;51.278;22.550;2022-07-04T05:38:23;14.25;11.50;8.25
72854;PMS7003;60991;51.278;22.550;2022-07-04T05:39:53;15.50;15.50;10.00
72854;PMS7003;60991;51.278;22.550;2022-07-04T05:41:23;15.50;13.25;10.00
72854;PMS7003;60991;51.278;22.550;2022-07-04T05:42:54;16.25;14.00;9.50
72854;PMS7003;60991;51.278;22.550;2022-07-04T05:44:24;16.75;15.00;10.75
72854;PMS7003;60991;51.278;22.550;2022-07-04T05:45:54;15.25;15.00;10.00
72854;PMS7003;60991;51.278;22.550;2022-07-04T05:47:24;16.25;15.75;11.00
72854;PMS7003;60991;51.278;22.550;2022-07-04T05:48:55;18.00;16.25;12.00
72854;PMS7003;60991;51.278;22.550;2022-07-04T05:50:25;16.75;16.75;10.50
72854;PMS7003;60991;51.278;22.550;2022-07-04T05:51:55;16.50;16.50;9.75
72854;PMS7003;60991;51.278;22.550;2022-07-04T05:53:26;15.00;11.25;9.00
72854;PMS7003;60991;51.278;22.550;2022-07-04T05:54:56;14.75;12.75;8.75
72854;PMS7003;60991;51.278;22.550;2022-07-04T05:56:26;14.00;14.00;9.00
72854;PMS7003;60991;51.278;22.550;2022-07-04T05:57:57;12.75;11.50;9.00
72854;PMS7003;60991;51.278;22.550;2022-07-04T05:59:27;13.50;13.50;9.50
72854;PMS7003;60991;51.278;22.550;2022-07-04T06:00:57;14.00;11.25;7.75
72854;PMS7003;60991;51.278;22.550;2022-07-04T06:02:27;13.25;12.00;9.00
72854;PMS7003;60991;51.278;22.550;2022-07-04T06:03:58;13.25;11.75;9.00
72854;PMS7003;60991;51.278;22.550;2022-07-04T06:05:28;14.00;12.75;10.00
72854;PMS7003;60991;51.278;22.550;2022-07-04T06:06:58;12.50;11.25;7.00
72854;PMS7003;60991;51.278;22.550;2022-07-04T06:08:29;10.25;10.25;8.00
72854;PMS7003;60991;51.278;22.550;2022-07-04T06:09:59;9.25;8.50;6.00
72854;PMS7003;60991;51.278;22.550;2022-07-04T06:11:30;12.25;12.25;9.25
72854;PMS7003;60991;51.278;22.550;2022-07-04T06:13:00;12.50;12.50;9.00
72854;PMS7003;60991;51.278;22.550;2022-07-04T06:14:30;14.25;11.00;7.00
72854;PMS7003;60991;51.278;22.550;2022-07-04T06:16:01;14.75;13.50;11.00
72854;PMS7003;60991;51.278;22.550;2022-07-04T06:17:31;12.00;11.50;9.00
72854;PMS7003;60991;51.278;22.550;2022-07-04T06:19:02;11.00;11.00;8.00
72854;PMS7003;60991;51.278;22.550;2022-07-04T06:20:32;10.50;9.00;5.25
72854;PMS7003;60991;51.278;22.550;2022-07-04T06:22:03;14.50;11.75;8.00
72854;PMS7003;60991;51.278;22.550;2022-07-04T06:23:33;12.75;12.75;8.75
72854;PMS7003;60991;51.278;22.550;2022-07-04T06:25:04;14.00;14.00;9.00
72854;PMS7003;60991;51.278;22.550;2022-07-04T06:26:35;11.50;11.50;9.50
72854;PMS7003;60991;51.278;22.550;2022-07-04T06:28:05;15.25;13.25;9.00
72854;PMS7003;60991;51.278;22.550;2022-07-04T06:29:35;13.00;11.25;8.00
72854;PMS7003;60991;51.278;22.550;2022-07-04T06:31:06;13.00;11.75;8.00
72854;PMS7003;60991;51.278;22.550;2022-07-04T06:34:13;14.00;12.00;9.00
72854;PMS7003;60991;51.278;22.550;2022-07-04T06:35:44;12.00;11.25;8.25
72854;PMS7003;60991;51.278;22.550;2022-07-04T06:37:14;13.00;13.00;10.00
72854;PMS7003;60991;51.278;22.550;2022-07-04T06:38:44;11.25;10.75;8.00
72854;PMS7003;60991;51.278;22.550;2022-07-04T06:40:15;10.00;10.00;7.75
72854;PMS7003;60991;51.278;22.550;2022-07-04T06:41:45;15.00;12.50;7.50
72854;PMS7003;60991;51.278;22.550;2022-07-04T06:43:15;12.50;11.75;8.00
72854;PMS7003;60991;51.278;22.550;2022-07-04T06:44:46;11.75;11.25;8.75
72854;PMS7003;60991;51.278;22.550;2022-07-04T06:46:16;10.50;10.50;8.25
72854;PMS7003;60991;51.278;22.550;2022-07-04T06:47:46;11.50;9.50;7.00
72854;PMS7003;60991;51.278;22.550;2022-07-04T06:49:16;11.25;10.75;7.00
72854;PMS7003;60991;51.278;22.550;2022-07-04T06:50:47;10.00;9.00;6.50
72854;PMS7003;60991;51.278;22.550;2022-07-04T06:52:17;11.00;10.00;6.50
72854;PMS7003;60991;51.278;22.550;2022-07-04T06:53:47;11.50;11.25;7.25
72854;PMS7003;60991;51.278;22.550;2022-07-04T06:55:18;14.50;13.00;8.75
72854;PMS7003;60991;51.278;22.550;2022-07-04T06:56:48;11.50;11.50;8.00
72854;PMS7003;60991;51.278;22.550;2022-07-04T06:58:18;10.00;10.00;7.75
72854;PMS7003;60991;51.278;22.550;2022-07-04T06:59:49;10.25;9.25;7.50
72854;PMS7003;60991;51.278;22.550;2022-07-04T07:01:19;11.50;11.50;6.25
72854;PMS7003;60991;51.278;22.550;2022-07-04T07:02:49;9.25;8.00;5.25
72854;PMS7003;60991;51.278;22.550;2022-07-04T07:04:20;12.50;10.75;8.00
72854;PMS7003;60991;51.278;22.550;2022-07-04T07:05:50;9.50;8.75;6.25
72854;PMS7003;60991;51.278;22.550;2022-07-04T07:07:20;7.00;7.00;5.25
72854;PMS7003;60991;51.278;22.550;2022-07-04T07:08:51;9.50;8.50;5.50
72854;PMS7003;60991;51.278;22.550;2022-07-04T07:10:21;11.50;10.25;6.75
72854;PMS7003;60991;51.278;22.550;2022-07-04T07:11:52;7.25;7.25;5.25
72854;PMS7003;60991;51.278;22.550;2022-07-04T07:13:22;7.50;6.75;5.50
72854;PMS7003;60991;51.278;22.550;2022-07-04T07:14:52;11.50;11.00;6.50
72854;PMS7003;60991;51.278;22.550;2022-07-04T07:16:22;8.00;8.00;6.00
72854;PMS7003;60991;51.278;22.550;2022-07-04T07:17:53;4.50;4.50;3.75
72854;PMS7003;60991;51.278;22.550;2022-07-04T07:19:23;5.75;5.75;4.75
72854;PMS7003;60991;51.278;22.550;2022-07-04T07:20:53;7.00;7.00;5.00
72854;PMS7003;60991;51.278;22.550;2022-07-04T07:22:24;6.75;6.00;4.50
72854;PMS7003;60991;51.278;22.550;2022-07-04T07:23:54;7.00;5.00;4.50
72854;PMS7003;60991;51.278;22.550;2022-07-04T07:25:24;7.50;7.50;6.00
72854;PMS7003;60991;51.278;22.550;2022-07-04T07:26:55;7.00;7.00;6.00
72854;PMS7003;60991;51.278;22.550;2022-07-04T07:28:25;9.00;8.50;7.00
72854;PMS7003;60991;51.278;22.550;2022-07-04T07:29:56;9.00;7.00;5.25
72854;PMS7003;60991;51.278;22.550;2022-07-04T07:31:26;8.25;8.00;5.50
72854;PMS7003;60991;51.278;22.550;2022-07-04T07:32:56;10.00;10.00;6.25
72854;PMS7003;60991;51.278;22.550;2022-07-04T07:34:26;6.00;5.50;4.00
72854;PMS7003;60991;51.278;22.550;2022-07-04T07:35:57;10.75;9.25;7.00
72854;PMS7003;60991;51.278;22.550;2022-07-04T07:37:27;9.50;8.25;6.25
72854;PMS7003;60991;51.278;22.550;2022-07-04T07:38:57;6.00;6.00;5.00
72854;PMS7003;60991;51.278;22.550;2022-07-04T07:40:28;4.75;4.75;3.75
72854;PMS7003;60991;51.278;22.550;2022-07-04T07:41:58;7.25;7.00;5.50
72854;PMS7003;60991;51.278;22.550;2022-07-04T07:43:28;10.00;8.00;6.00
72854;PMS7003;60991;51.278;22.550;2022-07-04T07:44:59;9.00;6.00;4.25
72854;PMS7003;60991;51.278;22.550;2022-07-04T07:46:29;8.25;7.75;5.75
72854;PMS7003;60991;51.278;22.550;2022-07-04T07:47:59;6.25;6.25;5.25
72854;PMS7003;60991;51.278;22.550;2022-07-04T07:49:30;10.00;10.00;7.00
72854;PMS7003;60991;51.278;22.550;2022-07-04T07:51:00;9.00;8.00;5.50
72854;PMS7003;60991;51.278;22.550;2022-07-04T07:52:30;8.00;6.75;5.00
72854;PMS7003;60991;51.278;22.550;2022-07-04T07:54:01;9.50;9.50;6.00
72854;PMS7003;60991;51.278;22.550;2022-07-04T07:55:31;8.50;6.50;4.75
72854;PMS7003;60991;51.278;22.550;2022-07-04T07:57:01;9.50;8.00;6.00
72854;PMS7003;60991;51.278;22.550;2022-07-04T07:58:32;8.00;6.75;4.00
72854;PMS7003;60991;51.278;22.550;2022-07-04T08:00:03;8.75;8.75;6.00
72854;PMS7003;60991;51.278;22.550;2022-07-04T08:01:34;6.50;6.50;4.75
72854;PMS7003;60991;51.278;22.550;2022-07-04T08:03:04;5.75;5.75;5.00
72854;PMS7003;60991;51.278;22.550;2022-07-04T08:04:35;6.00;6.00;4.50
72854;PMS7003;60991;51.278;22.550;2022-07-04T08:06:05;9.00;7.75;5.50
72854;PMS7003;60991;51.278;22.550;2022-07-04T08:07:35;6.75;6.75;5.50
72854;PMS7003;60991;51.278;22.550;2022-07-04T08:09:06;8.25;6.50;5.50
72854;PMS7003;60991;51.278;22.550;2022-07-04T08:10:37;9.00;8.00;5.75
72854;PMS7003;60991;51.278;22.550;2022-07-04T08:12:07;7.00;7.00;5.25
72854;PMS7003;60991;51.278;22.550;2022-07-04T08:13:38;7.75;6.50;5.00
72854;PMS7003;60991;51.278;22.550;2022-07-04T08:15:09;8.00;8.00;6.00
72854;PMS7003;60991;51.278;22.550;2022-07-04T08:16:40;10.00;8.00;6.00
72854;PMS7003;60991;51.278;22.550;2022-07-04T08:18:10;9.50;9.00;6.25
72854;PMS7003;60991;51.278;22.550;2022-07-04T08:19:40;6.00;6.00;4.75
72854;PMS7003;60991;51.278;22.550;2022-07-04T08:21:10;9.00;9.00;6.50
72854;PMS7003;60991;51.278;22.550;2022-07-04T08:22:41;11.75;9.50;6.75
72854;PMS7003;60991;51.278;22.550;2022-07-04T08:24:11;8.00;8.00;5.25
72854;PMS7003;60991;51.278;22.550;2022-07-04T08:25:42;8.00;8.00;5.50
72854;PMS7003;60991;51.278;22.550;2022-07-04T08:27:12;7.50;6.25;5.00
72854;PMS7003;60991;51.278;22.550;2022-07-04T08:28:43;8.75;7.50;4.75
72854;PMS7003;60991;51.278;22.550;2022-07-04T08:30:13;13.50;13.50;6.25
72854;PMS7003;60991;51.278;22.550;2022-07-04T08:31:44;7.25;7.25;6.25
72854;PMS7003;60991;51.278;22.550;2022-07-04T08:33:14;9.50;8.25;6.50